Time;durP1;ratioP1;P1;durP2;ratioP2;P2;SDS_P1;SDS_P2;PMS_P1;PMS_P2;Temp;Humidity;BMP_temperature;BMP_pressure;BME280_temperature;BME280_humidity;BME280_pressure;Samples;Min_cycle;Max_cycle;Signal;HPM_P1;HPM_P2
2023/11/07 00:47:18;;;;;;;5.35;2.28;;;9.80;99.90;;;;;;5375297;23;20062;-90
2023/11/07 00:49:45;;;;;;;4.53;2.25;;;9.80;99.90;;;;;;5005502;28;20035;-91
2023/11/07 00:52:11;;;;;;;3.65;1.90;;;9.80;99.90;;;;;;4988400;28;20039;-92
2023/11/07 00:54:37;;;;;;;5.70;1.88;;;9.80;99.90;;;;;;4985993;28;20023;-91
2023/11/07 00:57:02;;;;;;;4.88;1.88;;;9.80;99.90;;;;;;4983472;28;20089;-93
2023/11/07 00:59:31;;;;;;;8.52;2.10;;;9.80;99.90;;;;;;4980641;28;20038;-90
2023/11/07 01:48:44;;;;;;;3.10;1.38;;;9.60;99.90;;;;;;4958645;29;20075;-92
2023/11/07 01:51:12;;;;;;;3.47;1.77;;;9.60;99.90;;;;;;4961695;28;20031;-86
2023/11/07 01:53:40;;;;;;;3.47;2.03;;;9.60;99.90;;;;;;5335180;22;20046;-90
2023/11/07 02:03:56;;;;;;;5.93;2.05;;;9.60;99.90;;;;;;5774275;23;20451;-90
2023/11/07 02:06:21;;;;;;;4.35;1.85;;;9.60;99.90;;;;;;5025861;28;20127;-89
2023/11/07 02:08:47;;;;;;;3.97;1.80;;;9.70;99.90;;;;;;5018510;28;20022;-89
2023/11/07 02:11:13;;;;;;;5.47;1.88;;;9.60;99.90;;;;;;5016321;28;20333;-88
2023/11/07 02:13:39;;;;;;;4.95;2.17;;;9.60;99.90;;;;;;5021125;28;20056;-88
2023/11/07 02:16:05;;;;;;;5.22;1.77;;;9.60;99.90;;;;;;5017916;28;20026;-88
2023/11/07 02:18:31;;;;;;;5.30;1.80;;;9.60;99.90;;;;;;5011809;28;20029;-88
2023/11/07 02:20:56;;;;;;;4.20;1.90;;;9.60;99.90;;;;;;5011523;28;20144;-88
2023/11/07 02:23:34;;;;;;;3.95;1.95;;;9.60;99.90;;;;;;5014838;28;20531;-89
2023/11/07 02:26:00;;;;;;;5.82;2.03;;;9.60;99.90;;;;;;5018431;28;20026;-89
2023/11/07 02:28:26;;;;;;;4.80;1.75;;;9.60;99.90;;;;;;5014321;28;20053;-89
2023/11/07 02:30:52;;;;;;;4.30;1.80;;;9.60;99.90;;;;;;5017005;28;20030;-89
2023/11/07 02:33:20;;;;;;;4.13;1.73;;;9.60;99.90;;;;;;5021154;28;20030;-90
2023/11/07 02:35:46;;;;;;;6.35;2.20;;;9.60;99.90;;;;;;5018756;28;20097;-90
2023/11/07 02:38:12;;;;;;;4.63;1.70;;;9.60;99.90;;;;;;5003387;28;20015;-90
2023/11/07 02:40:38;;;;;;;3.25;1.88;;;9.60;99.90;;;;;;5006324;28;20035;-89
2023/11/07 02:43:06;;;;;;;6.30;1.73;;;9.60;99.90;;;;;;5017488;28;20022;-89
2023/11/07 02:45:37;;;;;;;2.03;1.40;;;9.60;99.90;;;;;;5018768;28;20038;-89
2023/11/07 02:48:03;;;;;;;4.05;1.50;;;9.60;99.90;;;;;;5016716;28;20030;-92
2023/11/07 02:50:29;;;;;;;2.88;1.30;;;9.60;99.90;;;;;;5013918;28;20064;-91
2023/11/07 02:52:55;;;;;;;3.17;1.50;;;9.70;99.90;;;;;;5007356;28;20057;-92
2023/11/07 02:55:20;;;;;;;3.60;1.48;;;9.70;99.90;;;;;;5028668;28;20015;-91
2023/11/07 02:57:46;;;;;;;3.33;1.40;;;9.70;99.90;;;;;;5023597;28;20037;-92
2023/11/07 03:00:13;;;;;;;4.03;1.90;;;9.70;99.90;;;;;;5009332;28;20029;-92
2023/11/07 03:02:39;;;;;;;6.50;1.92;;;9.70;99.90;;;;;;5015583;28;20031;-93
2023/11/07 03:05:07;;;;;;;2.78;1.60;;;9.60;99.90;;;;;;5006373;28;20079;-92
2023/11/07 03:07:34;;;;;;;2.38;1.33;;;9.60;99.90;;;;;;5028706;28;20059;-94
2023/11/07 03:10:01;;;;;;;3.47;1.48;;;9.60;99.90;;;;;;5008375;28;20141;-92
2023/11/07 03:12:28;;;;;;;3.50;1.45;;;9.70;99.90;;;;;;5018738;28;20022;-88
2023/11/07 03:14:55;;;;;;;3.28;1.50;;;9.60;99.90;;;;;;5018579;28;20087;-89
2023/11/07 03:17:24;;;;;;;3.35;1.60;;;9.70;99.90;;;;;;5008050;28;20030;-89
2023/11/07 03:19:53;;;;;;;2.28;1.17;;;9.60;99.90;;;;;;5005850;28;20025;-89
2023/11/07 03:22:19;;;;;;;5.07;1.60;;;9.60;99.90;;;;;;5023078;28;20558;-90
2023/11/07 03:24:46;;;;;;;5.07;1.50;;;9.60;99.90;;;;;;5001417;28;20034;-89
2023/11/07 03:27:12;;;;;;;4.15;1.50;;;9.60;99.90;;;;;;5018490;28;20467;-90
2023/11/07 03:29:37;;;;;;;4.20;1.95;;;9.60;99.90;;;;;;5018399;28;20057;-93
2023/11/07 03:32:04;;;;;;;2.88;1.40;;;9.60;99.90;;;;;;5007657;28;20044;-92
2023/11/07 03:34:30;;;;;;;3.58;1.45;;;9.60;99.90;;;;;;5007621;28;20033;-91
2023/11/07 03:42:59;;;;;;;3.92;1.60;;;9.60;99.90;;;;;;5041296;23;20054;-90
2023/11/07 03:50:36;;;;;;;3.20;1.60;;;9.60;99.90;;;;;;5690379;23;20981;-91
2023/11/07 03:53:02;;;;;;;3.10;1.70;;;9.60;99.90;;;;;;5008951;28;20093;-92
2023/11/07 03:55:27;;;;;;;4.05;1.60;;;9.60;99.90;;;;;;5011347;28;20098;-91
2023/11/07 03:57:53;;;;;;;7.95;2.83;;;9.60;99.90;;;;;;5013195;28;20041;-93
2023/11/07 04:00:25;;;;;;;3.55;1.70;;;9.60;99.90;;;;;;4996822;28;20045;-91
2023/11/07 04:02:51;;;;;;;1.88;1.40;;;9.70;99.90;;;;;;5015804;28;20041;-90
2023/11/07 04:05:16;;;;;;;3.38;1.50;;;9.70;99.90;;;;;;5013386;28;20073;-89
2023/11/07 04:07:42;;;;;;;8.75;1.50;;;9.70;99.90;;;;;;5009558;28;20026;-91
2023/11/07 04:10:08;;;;;;;4.30;1.58;;;9.80;99.90;;;;;;5018635;28;20033;-90
2023/11/07 04:12:33;;;;;;;4.65;1.48;;;9.80;99.90;;;;;;5012865;28;20084;-90
2023/11/07 04:15:01;;;;;;;4.57;1.85;;;9.80;99.90;;;;;;5012852;28;20122;-90
2023/11/07 04:17:27;;;;;;;4.93;1.60;;;9.90;99.90;;;;;;5013486;28;20527;-90
2023/11/07 04:19:53;;;;;;;3.50;1.60;;;9.80;99.90;;;;;;5008640;28;20113;-89
2023/11/07 04:22:18;;;;;;;3.53;1.90;;;9.80;99.90;;;;;;5007855;28;20094;-89
2023/11/07 04:24:44;;;;;;;3.83;1.58;;;9.80;99.90;;;;;;5007155;28;20111;-91
2023/11/07 04:27:10;;;;;;;4.97;1.92;;;9.80;99.90;;;;;;4996828;28;20710;-89
2023/11/07 04:29:36;;;;;;;5.28;1.80;;;9.80;99.90;;;;;;5010419;28;20023;-88
2023/11/07 04:32:02;;;;;;;5.65;2.10;;;9.80;99.90;;;;;;5011464;28;20042;-88
2023/11/07 04:34:28;;;;;;;4.40;1.60;;;9.80;99.90;;;;;;5019147;28;20030;-87
2023/11/07 04:36:58;;;;;;;4.97;2.10;;;9.80;99.90;;;;;;5017874;28;20035;-91
2023/11/07 04:39:24;;;;;;;7.75;1.92;;;9.80;99.90;;;;;;5007039;28;20022;-91
2023/11/07 04:41:50;;;;;;;3.78;1.58;;;9.80;99.90;;;;;;5015884;28;20097;-91
2023/11/07 04:44:15;;;;;;;5.25;1.98;;;9.80;99.90;;;;;;4999744;28;20038;-90
2023/11/07 04:46:44;;;;;;;2.90;1.75;;;9.80;99.90;;;;;;5375000;23;20079;-91
2023/11/07 04:52:35;;;;;;;4.00;1.90;;;9.80;99.90;;;;;;4968428;28;20055;-87
2023/11/07 04:55:16;;;;;;;4.47;1.60;;;9.80;99.90;;;;;;4959878;28;20549;-91
2023/11/07 05:01:22;;;;;;;3.05;1.40;;;9.90;99.90;;;;;;4962977;29;20050;-89
2023/11/07 05:06:25;;;;;;;3.53;1.83;;;9.90;99.90;;;;;;5623808;23;20034;-87
2023/11/07 05:08:51;;;;;;;9.45;2.75;;;9.90;99.90;;;;;;5017480;28;20457;-87
2023/11/07 05:16:29;;;;;;;3.65;1.70;;;9.90;99.90;;;;;;5193298;23;20047;-87
2023/11/07 05:19:12;;;;;;;6.15;2.60;;;9.90;99.90;;;;;;4993568;28;20045;-91
2023/11/07 05:21:56;;;;;;;7.35;2.90;;;9.90;99.90;;;;;;4992134;28;20035;-90
2023/11/07 05:25:12;;;;;;;4.13;2.10;;;9.80;99.90;;;;;;5019170;28;20034;-91
2023/11/07 05:27:47;;;;;;;4.25;1.90;;;9.90;99.90;;;;;;4987836;28;20504;-90
2023/11/07 05:31:31;;;;;;;4.93;2.17;;;9.80;99.90;;;;;;4985822;28;20031;-92
2023/11/07 05:38:10;;;;;;;4.35;2.60;;;9.90;99.90;;;;;;4951289;29;20066;-93
2023/11/07 05:40:56;;;;;;;4.50;2.22;;;9.80;99.90;;;;;;4947451;29;20042;-88
2023/11/07 05:43:24;;;;;;;3.25;1.73;;;9.90;99.90;;;;;;4988800;28;20031;-90
2023/11/07 05:46:05;;;;;;;5.45;2.00;;;9.90;99.90;;;;;;5020789;28;20150;-89
2023/11/07 05:49:01;;;;;;;4.97;2.20;;;9.90;99.90;;;;;;4984520;28;20049;-90
2023/11/07 05:51:27;;;;;;;2.70;1.58;;;9.90;99.90;;;;;;5006375;28;20039;-90
2023/11/07 05:53:55;;;;;;;5.97;2.28;;;9.90;99.90;;;;;;5013677;28;20127;-91
2023/11/07 05:56:26;;;;;;;8.60;3.50;;;9.90;99.90;;;;;;4985889;28;20026;-91
2023/11/07 05:58:52;;;;;;;7.53;2.92;;;9.90;99.90;;;;;;4992755;28;20102;-91
2023/11/07 06:01:21;;;;;;;4.57;2.65;;;9.90;99.90;;;;;;4986276;28;20047;-91
2023/11/07 06:03:50;;;;;;;4.50;2.95;;;9.90;99.90;;;;;;4984587;28;20015;-93
2023/11/07 06:06:15;;;;;;;3.90;2.50;;;9.90;99.90;;;;;;4985860;28;20038;-90
2023/11/07 06:08:41;;;;;;;4.90;2.60;;;10.00;99.90;;;;;;4987510;28;20027;-89
2023/11/07 06:11:10;;;;;;;5.57;2.53;;;10.00;99.90;;;;;;5012842;28;20090;-91
2023/11/07 06:13:36;;;;;;;6.10;3.42;;;10.00;99.90;;;;;;4986807;28;20490;-90
2023/11/07 06:16:05;;;;;;;5.38;2.47;;;9.90;99.90;;;;;;4971358;28;20045;-91
2023/11/07 06:18:32;;;;;;;7.95;3.45;;;9.90;99.90;;;;;;5023868;28;20094;-91
2023/11/07 06:21:05;;;;;;;3.90;2.42;;;9.90;99.90;;;;;;4987174;28;20011;-91
2023/11/07 06:23:30;;;;;;;5.68;2.40;;;9.90;99.90;;;;;;5001821;28;20030;-91
2023/11/07 06:25:56;;;;;;;5.57;2.90;;;9.90;99.90;;;;;;4970248;28;20040;-90
2023/11/07 06:28:22;;;;;;;6.28;2.90;;;10.00;99.90;;;;;;5012057;28;20114;-91
2023/11/07 06:30:48;;;;;;;4.70;2.38;;;10.00;99.90;;;;;;4988412;28;20041;-89
2023/11/07 06:33:14;;;;;;;8.98;3.70;;;10.00;99.90;;;;;;4984601;28;20019;-90
2023/11/07 06:42:25;;;;;;;4.38;2.15;;;10.00;99.90;;;;;;4960589;28;20038;-90
2023/11/07 08:22:18;;;;;;;7.45;3.67;;;10.50;99.90;;;;;;1611311;23;20308;-86
2023/11/07 08:25:36;;;;;;;5.22;3.38;;;10.50;99.90;;;;;;4984874;28;20062;-89
2023/11/07 08:29:00;;;;;;;5.47;3.13;;;10.40;99.90;;;;;;4964541;28;20032;-91
2023/11/07 08:32:32;;;;;;;6.93;3.20;;;10.40;99.90;;;;;;4973855;28;20039;-90
2023/11/07 08:34:58;;;;;;;12.60;4.75;;;10.40;99.90;;;;;;4978343;28;20035;-91
2023/11/07 08:37:24;;;;;;;6.40;3.00;;;10.40;99.90;;;;;;4971001;28;20027;-89
2023/11/07 08:39:50;;;;;;;7.38;3.70;;;10.40;99.90;;;;;;4962012;28;20031;-90
2023/11/07 08:42:22;;;;;;;7.63;3.00;;;10.40;99.90;;;;;;4970789;28;20019;-90
2023/11/07 08:44:50;;;;;;;4.40;2.70;;;10.40;99.90;;;;;;4971991;28;20015;-91
2023/11/07 08:47:26;;;;;;;5.32;2.70;;;10.50;99.90;;;;;;4977729;28;20035;-90
2023/11/07 08:57:40;;;;;;;4.68;2.50;;;10.60;99.90;;;;;;6016659;23;20025;-87
2023/11/07 09:00:08;;;;;;;4.05;2.45;;;10.60;99.70;;;;;;4973314;28;20090;-88
2023/11/07 09:06:39;;;;;;;3.53;2.50;;;10.70;99.60;;;;;;4962257;29;20014;-88
2023/11/07 09:09:58;;;;;;;2.80;1.83;;;10.80;99.40;;;;;;4956164;29;20067;-87
2023/11/07 09:13:07;;;;;;;2.28;1.73;;;10.80;99.40;;;;;;4967710;28;20054;-88
2023/11/07 09:18:13;;;;;;;5.82;2.60;;;10.90;99.30;;;;;;5647523;23;20077;-87
2023/11/07 09:24:36;;;;;;;2.05;1.73;;;11.00;99.10;;;;;;4987849;28;20061;-90
2023/11/07 09:27:11;;;;;;;5.72;2.55;;;11.00;98.90;;;;;;4984691;28;20043;-90
2023/11/07 09:29:39;;;;;;;4.13;2.55;;;11.00;98.60;;;;;;4963969;29;20031;-90
2023/11/07 09:32:17;;;;;;;2.72;1.80;;;11.00;98.40;;;;;;4958559;28;20025;-89
2023/11/07 09:37:57;;;;;;;4.30;2.70;;;11.00;98.50;;;;;;5360998;23;20081;-89
2023/11/07 09:40:25;;;;;;;;;;;11.00;98.40;;;;;;4987588;28;20035;-87
2023/11/07 09:43:16;;;;;;;4.60;2.28;;;11.10;98.20;;;;;;4987506;28;19910;-88
2023/11/07 09:45:43;;;;;;;4.20;2.28;;;11.00;98.00;;;;;;4980089;28;20016;-88
2023/11/07 09:48:13;;;;;;;4.55;2.10;;;11.00;98.00;;;;;;4970440;28;20047;-88
2023/11/07 09:50:43;;;;;;;4.00;2.20;;;11.10;97.90;;;;;;4962149;28;20034;-88
2023/11/07 09:53:13;;;;;;;2.65;1.90;;;11.10;97.90;;;;;;4968604;28;20102;-89
2023/11/07 09:55:39;;;;;;;3.15;1.70;;;11.10;97.80;;;;;;4966543;28;20023;-89
2023/11/07 09:58:19;;;;;;;1.90;1.45;;;11.10;97.70;;;;;;4977125;28;20019;-88
2023/11/07 10:03:21;;;;;;;2.95;1.55;;;11.20;97.80;;;;;;5155269;23;20105;-88
2023/11/07 10:05:48;;;;;;;3.72;2.05;;;11.20;97.70;;;;;;4990329;28;20033;-88
2023/11/07 10:08:16;;;;;;;5.18;2.10;;;11.20;97.60;;;;;;4980215;28;20143;-88
2023/11/07 10:10:42;;;;;;;1.77;1.40;;;11.20;97.50;;;;;;4993684;28;20026;-88
2023/11/07 10:13:12;;;;;;;2.80;1.80;;;11.30;97.60;;;;;;4985830;28;20025;-88
2023/11/07 10:15:39;;;;;;;2.20;1.90;;;11.30;97.50;;;;;;4988288;28;20371;-88
2023/11/07 10:18:16;;;;;;;2.92;1.80;;;11.30;97.40;;;;;;4975498;28;20074;-88
2023/11/07 10:20:50;;;;;;;3.10;2.30;;;11.40;97.30;;;;;;4978353;28;20022;-89
2023/11/07 10:23:17;;;;;;;2.92;1.80;;;11.40;97.00;;;;;;4989994;28;20037;-89
2023/11/07 10:25:49;;;;;;;3.10;1.88;;;11.50;96.90;;;;;;4969794;28;20038;-89
2023/11/07 10:28:15;;;;;;;1.95;1.48;;;11.50;97.00;;;;;;4971329;28;20030;-88
2023/11/07 10:30:45;;;;;;;3.03;1.88;;;11.60;96.70;;;;;;4975359;28;20159;-89
2023/11/07 10:33:23;;;;;;;3.15;2.30;;;11.70;96.50;;;;;;4980503;28;20022;-88
2023/11/07 10:35:58;;;;;;;2.53;1.70;;;11.70;96.20;;;;;;4980467;28;20026;-89
2023/11/07 10:38:25;;;;;;;2.42;1.60;;;11.70;96.00;;;;;;4977843;28;20074;-89
2023/11/07 10:40:51;;;;;;;2.05;1.55;;;11.80;96.00;;;;;;4979829;28;20049;-89
2023/11/07 10:43:36;;;;;;;1.80;1.35;;;11.90;96.00;;;;;;4981456;28;20054;-88
2023/11/07 10:46:04;;;;;;;2.28;1.60;;;12.00;96.00;;;;;;4985696;28;20110;-88
2023/11/07 10:48:40;;;;;;;1.42;1.23;;;12.10;95.90;;;;;;4983991;28;20121;-89
2023/11/07 10:51:09;;;;;;;2.25;1.30;;;12.20;95.80;;;;;;4963190;28;20039;-88
2023/11/07 10:53:45;;;;;;;3.67;1.92;;;12.20;95.60;;;;;;4981479;28;20029;-88
2023/11/07 10:56:18;;;;;;;3.25;1.92;;;12.30;95.10;;;;;;4972785;28;20015;-89
2023/11/07 10:59:06;;;;;;;3.22;1.65;;;12.30;94.60;;;;;;4979490;28;20047;-88
2023/11/07 11:01:45;;;;;;;3.90;1.63;;;12.40;94.50;;;;;;4982163;28;20058;-88
2023/11/07 11:04:15;;;;;;;1.70;1.60;;;12.40;94.10;;;;;;4978747;28;20051;-88
2023/11/07 11:06:45;;;;;;;2.75;1.75;;;12.50;94.10;;;;;;4983454;28;20042;-88
2023/11/07 11:09:11;;;;;;;2.67;1.60;;;12.70;93.60;;;;;;4993518;28;20105;-88
2023/11/07 11:11:41;;;;;;;3.92;1.85;;;12.70;93.30;;;;;;4982849;28;20031;-89
2023/11/07 11:17:47;;;;;;;3.22;2.00;;;12.70;92.20;;;;;;4970119;28;20051;-89
2023/11/07 11:20:43;;;;;;;4.07;1.50;;;12.70;91.60;;;;;;4986297;28;20124;-89
2023/11/07 11:23:26;;;;;;;2.25;1.40;;;12.70;91.90;;;;;;4993178;28;20122;-89
2023/11/07 11:26:17;;;;;;;3.00;1.63;;;12.60;91.90;;;;;;4986852;28;20031;-89
2023/11/07 11:28:43;;;;;;;2.92;1.50;;;12.70;92.00;;;;;;4986969;28;20027;-89
2023/11/07 11:31:21;;;;;;;2.42;1.40;;;12.60;91.90;;;;;;4986527;28;20074;-88
2023/11/07 11:33:51;;;;;;;1.92;1.35;;;12.60;92.00;;;;;;4982471;28;20039;-88
2023/11/07 11:36:44;;;;;;;3.20;1.70;;;12.60;91.90;;;;;;4988621;28;20034;-88
2023/11/07 11:39:29;;;;;;;2.97;1.48;;;12.60;91.80;;;;;;4983427;28;20047;-89
2023/11/07 11:42:01;;;;;;;4.35;2.30;;;12.60;91.90;;;;;;4970289;28;20043;-88
2023/11/07 11:44:31;;;;;;;3.10;1.40;;;12.60;91.40;;;;;;4976703;28;20110;-88
2023/11/07 11:47:04;;;;;;;1.40;1.20;;;12.60;91.70;;;;;;4981066;28;20043;-88
2023/11/07 11:50:09;;;;;;;1.65;1.00;;;12.60;91.80;;;;;;4970861;28;20058;-89
2023/11/07 11:52:39;;;;;;;1.17;0.90;;;12.70;92.00;;;;;;4982435;28;20027;-90
2023/11/07 11:55:10;;;;;;;2.05;1.30;;;12.80;91.80;;;;;;4974296;28;20023;-89
2023/11/07 11:58:36;;;;;;;1.58;1.20;;;12.90;91.80;;;;;;4966064;28;20028;-89
2023/11/07 12:01:06;;;;;;;2.95;1.20;;;12.80;91.70;;;;;;4945793;29;20047;-88
2023/11/07 12:03:48;;;;;;;2.45;1.20;;;12.60;91.80;;;;;;4977696;28;20051;-88
2023/11/07 12:06:14;;;;;;;3.03;1.70;;;12.60;91.80;;;;;;5044094;23;20626;-89
2023/11/07 12:08:49;;;;;;;2.67;1.30;;;12.60;91.70;;;;;;4992849;28;20031;-88
2023/11/07 12:11:23;;;;;;;2.08;1.40;;;12.60;91.80;;;;;;4996519;28;20093;-88
2023/11/07 12:14:02;;;;;;;1.77;1.20;;;12.70;91.90;;;;;;4986494;28;20027;-89
2023/11/07 12:16:31;;;;;;;1.27;1.23;;;12.80;91.90;;;;;;4974931;28;20058;-89
2023/11/07 12:18:58;;;;;;;3.88;1.70;;;12.70;91.60;;;;;;4970711;28;20378;-87
2023/11/07 12:21:25;;;;;;;2.47;1.30;;;12.80;91.50;;;;;;4967726;28;20030;-89
2023/11/07 12:23:53;;;;;;;1.23;1.10;;;12.80;91.60;;;;;;4966419;28;20034;-88
2023/11/07 12:26:22;;;;;;;2.47;1.40;;;13.00;91.70;;;;;;4968696;28;20046;-89
2023/11/07 12:28:49;;;;;;;2.80;1.30;;;13.70;91.10;;;;;;4965493;28;20048;-89
2023/11/07 12:31:15;;;;;;;3.03;1.50;;;13.60;90.30;;;;;;4962094;28;20026;-89
2023/11/07 12:33:42;;;;;;;2.05;1.58;;;13.50;90.10;;;;;;4955656;29;20023;-89
2023/11/07 12:36:11;;;;;;;2.30;1.70;;;13.30;90.10;;;;;;5006073;23;20039;-89
2023/11/07 12:38:37;;;;;;;6.07;1.50;;;13.30;90.20;;;;;;4953684;29;20032;-88
2023/11/07 12:41:05;;;;;;;2.17;1.40;;;14.20;89.30;;;;;;4972340;28;20078;-89
2023/11/07 12:43:42;;;;;;;2.78;1.23;;;14.40;87.20;;;;;;4981344;28;20050;-88
2023/11/07 12:46:09;;;;;;;2.05;1.40;;;14.60;87.30;;;;;;4968801;28;20020;-90
2023/11/07 12:48:37;;;;;;;1.95;1.60;;;14.80;86.80;;;;;;4960598;28;20034;-88
2023/11/07 12:51:14;;;;;;;4.38;1.73;;;14.90;85.80;;;;;;4961004;29;20039;-88
2023/11/07 12:53:48;;;;;;;3.50;1.50;;;14.60;84.90;;;;;;4967178;28;20063;-94
2023/11/07 12:56:25;;;;;;;3.20;2.63;;;14.50;86.70;;;;;;4954474;29;20023;-92
2023/11/07 19:44:36;;;;;;;6.40;3.63;;;10.30;92.10;;;;;;4198959;27;20052;-83
2023/11/07 19:47:01;;;;;;;5.15;4.10;;;10.30;92.00;;;;;;4925242;29;20032;-83
2023/11/07 19:49:28;;;;;;;3.35;2.25;;;10.30;92.00;;;;;;4927936;29;20031;-83
2023/11/07 19:52:01;;;;;;;1.70;1.60;;;10.30;92.00;;;;;;4936567;29;20051;-83
2023/11/07 19:54:26;;;;;;;2.45;1.60;;;10.40;92.00;;;;;;4914431;29;20055;-82
2023/11/07 19:56:54;;;;;;;0.98;0.93;;;10.40;92.00;;;;;;4927556;29;20068;-83
2023/11/07 19:59:21;;;;;;;2.40;1.63;;;10.40;91.90;;;;;;4936929;29;20035;-84
2023/11/07 20:01:48;;;;;;;2.08;1.73;;;10.40;92.00;;;;;;4934514;29;20044;-84
2023/11/07 20:04:15;;;;;;;2.45;1.50;;;10.40;91.90;;;;;;4926190;29;20028;-88
2023/11/07 20:06:40;;;;;;;3.28;1.60;;;10.40;91.80;;;;;;5379807;23;20075;-83
2023/11/07 20:09:06;;;;;;;2.58;1.70;;;10.40;91.80;;;;;;4989795;28;20022;-84
2023/11/07 20:11:34;;;;;;;2.60;1.95;;;10.30;91.70;;;;;;4996692;28;20050;-84
2023/11/07 20:14:00;;;;;;;1.88;1.30;;;10.30;91.80;;;;;;5003171;28;20041;-85
2023/11/07 20:16:27;;;;;;;2.92;2.67;;;10.30;91.90;;;;;;4991089;28;20026;-82
2023/11/07 20:18:53;;;;;;;2.15;1.95;;;10.30;91.90;;;;;;4976599;28;20015;-85
2023/11/07 20:21:19;;;;;;;2.10;1.67;;;10.30;92.00;;;;;;4991849;28;20027;-83
2023/11/07 20:23:45;;;;;;;2.38;1.13;;;10.20;91.90;;;;;;4991922;28;20023;-85
2023/11/07 20:26:11;;;;;;;2.30;1.67;;;10.20;92.00;;;;;;4995976;28;20019;-83
2023/11/07 20:28:37;;;;;;;1.85;1.30;;;10.20;92.00;;;;;;5005076;28;20031;-86
2023/11/07 20:31:03;;;;;;;1.90;1.42;;;10.10;92.00;;;;;;4998634;28;20041;-83
2023/11/07 20:33:29;;;;;;;1.10;1.00;;;10.10;92.10;;;;;;4980305;28;20019;-87
2023/11/07 20:35:54;;;;;;;2.47;1.27;;;10.10;92.10;;;;;;4996300;28;20027;-85
2023/11/07 20:38:20;;;;;;;2.30;1.30;;;10.00;92.10;;;;;;4996960;28;20021;-85
2023/11/07 20:40:47;;;;;;;2.30;1.40;;;10.00;92.10;;;;;;4982879;28;20030;-83
2023/11/07 20:45:49;;;;;;;2.35;1.50;;;9.90;92.20;;;;;;4951006;23;19950;-83
2023/11/07 20:48:14;;;;;;;2.05;1.60;;;9.90;92.20;;;;;;4951477;28;20075;-85
2023/11/07 20:50:41;;;;;;;2.55;1.33;;;9.90;92.20;;;;;;4933489;28;20032;-84
2023/11/07 20:53:08;;;;;;;1.75;1.20;;;10.00;92.30;;;;;;4940859;28;20024;-83
2023/11/07 20:55:33;;;;;;;1.48;1.33;;;10.00;92.30;;;;;;4938143;29;20028;-83
2023/11/07 20:57:59;;;;;;;2.35;1.60;;;10.00;92.20;;;;;;4929063;29;20083;-84
2023/11/07 21:00:26;;;;;;;3.10;2.60;;;10.00;92.20;;;;;;4940663;28;20064;-85
2023/11/07 21:02:52;;;;;;;2.90;2.53;;;9.90;92.20;;;;;;4954338;28;20076;-84
2023/11/07 21:10:28;;;;;;;1.90;1.70;;;10.00;92.30;;;;;;3087731;27;20048;-85
2023/11/07 21:12:55;;;;;;;4.28;2.38;;;10.00;92.30;;;;;;4935497;29;20040;-86
2023/11/07 21:15:21;;;;;;;2.85;2.05;;;10.00;92.30;;;;;;4934329;29;20056;-85
2023/11/07 21:17:47;;;;;;;2.45;2.00;;;10.00;92.20;;;;;;4936085;29;20476;-84
2023/11/07 21:20:14;;;;;;;3.03;2.08;;;10.10;92.30;;;;;;4941858;29;20035;-85
2023/11/07 21:22:40;;;;;;;4.07;2.15;;;10.10;92.20;;;;;;4933357;29;20024;-86
2023/11/07 21:25:08;;;;;;;2.33;1.70;;;10.10;92.30;;;;;;4911762;29;20024;-85
2023/11/07 21:27:37;;;;;;;2.30;1.60;;;10.10;92.30;;;;;;4904193;29;20024;-83
2023/11/07 21:30:05;;;;;;;2.47;1.48;;;10.10;92.30;;;;;;4911518;29;20036;-85
2023/11/07 21:32:32;;;;;;;1.75;1.42;;;10.10;92.40;;;;;;4910488;29;20343;-83
2023/11/07 21:34:58;;;;;;;1.40;1.30;;;10.00;92.50;;;;;;4910684;29;20025;-83
2023/11/07 21:37:24;;;;;;;2.00;1.45;;;10.00;92.50;;;;;;4908255;29;20028;-83
2023/11/07 21:39:50;;;;;;;1.90;1.50;;;10.00;92.60;;;;;;4910280;29;20036;-84
2023/11/07 21:42:18;;;;;;;2.35;1.60;;;10.00;92.60;;;;;;4910346;29;20031;-87
2023/11/07 21:44:47;;;;;;;3.90;1.80;;;10.00;92.70;;;;;;4914843;29;20117;-83
2023/11/07 21:47:15;;;;;;;5.78;1.65;;;10.00;92.70;;;;;;4909520;29;20834;-84
2023/11/07 21:49:43;;;;;;;3.92;1.88;;;9.90;92.70;;;;;;4913456;29;20016;-84
2023/11/07 21:52:08;;;;;;;5.60;2.63;;;10.00;92.80;;;;;;4910920;29;20400;-84
2023/11/07 21:54:34;;;;;;;4.53;2.40;;;9.90;92.80;;;;;;4917507;29;20039;-84
2023/11/07 21:57:01;;;;;;;3.70;1.92;;;9.80;92.90;;;;;;4913427;29;20047;-84
2023/11/07 21:59:26;;;;;;;5.95;2.22;;;9.80;93.00;;;;;;4902887;29;20028;-85
2023/11/07 22:01:52;;;;;;;3.35;1.70;;;9.80;93.10;;;;;;4907142;29;20047;-82
2023/11/07 22:04:17;;;;;;;3.47;1.40;;;9.80;93.20;;;;;;4906314;29;20039;-83
2023/11/07 22:06:43;;;;;;;2.80;1.40;;;9.90;93.30;;;;;;4912247;29;20180;-82
2023/11/07 22:09:09;;;;;;;2.05;1.63;;;9.90;93.20;;;;;;4915608;29;20339;-83
2023/11/07 22:11:34;;;;;;;1.70;1.40;;;9.90;93.30;;;;;;4907500;29;20047;-82
2023/11/07 22:14:00;;;;;;;2.35;1.50;;;9.90;93.30;;;;;;4909629;29;20028;-82
2023/11/07 22:16:27;;;;;;;4.43;1.75;;;9.90;93.40;;;;;;4907638;29;20484;-83
2023/11/07 22:18:53;;;;;;;3.17;2.00;;;9.90;93.50;;;;;;4927834;29;20391;-83
2023/11/07 22:21:18;;;;;;;3.92;2.00;;;9.80;93.60;;;;;;4904184;29;20040;-82
2023/11/07 22:23:47;;;;;;;3.33;2.20;;;9.80;93.70;;;;;;4909987;29;20032;-84
2023/11/07 22:26:12;;;;;;;3.88;2.05;;;9.70;93.70;;;;;;4909313;29;20028;-84
2023/11/07 22:28:38;;;;;;;3.88;1.80;;;9.70;93.80;;;;;;4911719;29;20539;-83
2023/11/07 22:31:04;;;;;;;2.22;1.40;;;9.70;93.90;;;;;;4907135;29;20412;-82
2023/11/07 22:33:29;;;;;;;2.20;1.50;;;9.60;94.00;;;;;;4913009;29;20020;-82
2023/11/07 22:35:55;;;;;;;3.63;1.70;;;9.70;94.10;;;;;;4909927;29;20120;-81
2023/11/07 22:38:21;;;;;;;2.65;1.70;;;9.70;94.20;;;;;;4906403;29;20384;-82
2023/11/07 22:40:49;;;;;;;3.42;2.35;;;9.70;94.20;;;;;;4911205;29;20487;-81
2023/11/07 22:43:15;;;;;;;2.58;1.50;;;9.60;94.20;;;;;;4908301;29;20227;-82
2023/11/07 22:45:41;;;;;;;2.97;2.00;;;9.60;94.30;;;;;;4903967;29;20468;-82
2023/11/07 22:48:08;;;;;;;4.78;2.20;;;9.60;94.40;;;;;;4907093;29;20020;-81
2023/11/07 22:50:33;;;;;;;3.55;1.92;;;9.60;94.60;;;;;;4905884;29;20941;-82
2023/11/07 22:52:59;;;;;;;2.72;1.85;;;9.60;94.60;;;;;;4909858;29;20024;-82
2023/11/07 22:55:25;;;;;;;3.45;1.40;;;9.70;94.70;;;;;;4917016;29;20088;-82
2023/11/07 22:57:51;;;;;;;3.53;2.20;;;9.70;94.70;;;;;;4914315;29;20775;-82
2023/11/07 23:00:27;;;;;;;3.95;2.00;;;9.70;94.70;;;;;;4911278;29;20119;-82
2023/11/07 23:02:54;;;;;;;1.77;1.40;;;9.70;94.70;;;;;;4912259;29;20046;-81
2023/11/07 23:05:20;;;;;;;1.70;1.40;;;9.70;94.70;;;;;;4909442;29;20175;-80
2023/11/07 23:07:49;;;;;;;2.75;1.88;;;9.70;94.70;;;;;;4906879;29;21201;-82
2023/11/07 23:10:15;;;;;;;2.00;1.50;;;9.60;94.90;;;;;;4907545;29;20123;-81
2023/11/07 23:12:43;;;;;;;1.80;1.10;;;9.60;94.90;;;;;;4909964;29;20432;-80
2023/11/07 23:15:11;;;;;;;2.80;1.48;;;9.60;95.00;;;;;;4913514;29;20055;-81
2023/11/07 23:17:37;;;;;;;2.08;1.25;;;9.60;95.00;;;;;;4917901;29;20537;-81
2023/11/07 23:20:06;;;;;;;1.75;1.38;;;9.60;95.10;;;;;;4914729;29;20119;-81
2023/11/07 23:22:32;;;;;;;2.92;1.65;;;9.60;95.20;;;;;;4916206;29;20043;-81
2023/11/07 23:24:58;;;;;;;3.20;1.70;;;9.60;95.30;;;;;;4909149;29;20024;-81
2023/11/07 23:27:24;;;;;;;2.55;1.67;;;9.70;95.40;;;;;;4914484;29;20043;-81
2023/11/07 23:29:54;;;;;;;1.83;1.38;;;9.70;95.50;;;;;;4914132;29;20028;-79
2023/11/07 23:32:20;;;;;;;2.78;1.35;;;9.60;95.60;;;;;;4912238;29;20080;-81
2023/11/07 23:34:45;;;;;;;1.85;1.20;;;9.60;95.70;;;;;;4911245;29;20040;-81
2023/11/07 23:37:11;;;;;;;2.38;1.83;;;9.70;95.80;;;;;;4909740;29;20155;-81
2023/11/07 23:39:37;;;;;;;3.65;2.28;;;9.70;95.80;;;;;;4913084;29;20040;-81
2023/11/07 23:42:02;;;;;;;4.05;2.15;;;9.60;96.00;;;;;;4910477;29;20198;-82
2023/11/07 23:44:28;;;;;;;2.58;1.95;;;9.60;96.10;;;;;;4911636;29;20034;-82
2023/11/07 23:46:53;;;;;;;3.15;1.73;;;9.60;96.20;;;;;;4926622;29;20032;-81
2023/11/07 23:49:20;;;;;;;2.60;1.80;;;9.60;96.30;;;;;;4909453;29;20024;-82
2023/11/07 23:51:46;;;;;;;1.65;1.55;;;9.50;96.50;;;;;;4908864;29;20063;-82
2023/11/07 23:54:12;;;;;;;2.42;1.73;;;9.60;96.60;;;;;;4911905;29;20064;-81
2023/11/07 23:56:39;;;;;;;3.97;2.10;;;9.60;96.70;;;;;;4911424;29;20039;-82
2023/11/07 23:59:08;;;;;;;2.80;2.20;;;9.60;96.80;;;;;;4907836;29;20080;-81
